Time;durP1;ratioP1;P1;durP2;ratioP2;P2;SDS_P1;SDS_P2;PMS_P1;PMS_P2;Temp;Humidity;BMP_temperature;BMP_pressure;BME280_temperature;BME280_humidity;BME280_pressure;Samples;Min_cycle;Max_cycle;Signal;HPM_P1;HPM_P2
2022/02/04 00:09:59;;;;;;;21.53;20.53;;;17.40;83.90;;;;;;5072975;28;20631;-44
2022/02/04 00:20:48;;;;;;;21.43;20.53;;;17.40;83.90;;;;;;5063282;28;20807;-44
2022/02/04 00:23:19;;;;;;;21.07;20.17;;;17.40;84.10;;;;;;5088637;28;20680;-43
2022/02/04 00:26:05;;;;;;;21.23;20.33;;;17.40;84.00;;;;;;5088457;28;20587;-44
2022/02/04 00:28:43;;;;;;;21.23;20.30;;;17.30;84.10;;;;;;5088484;28;20589;-43
2022/02/04 00:31:27;;;;;;;20.73;19.93;;;17.30;83.80;;;;;;5076426;28;20477;-46
2022/02/04 00:33:59;;;;;;;20.40;19.60;;;17.30;83.90;;;;;;5068222;28;20514;-44
2022/02/04 00:36:32;;;;;;;22.50;21.30;;;17.30;84.10;;;;;;5067961;28;20454;-46
2022/02/04 00:39:05;;;;;;;21.60;20.70;;;17.30;83.80;;;;;;5074979;28;20587;-44
2022/02/04 00:41:35;;;;;;;21.00;20.10;;;17.30;84.10;;;;;;5088244;28;20508;-42
2022/02/04 00:44:03;;;;;;;21.00;20.10;;;17.30;84.80;;;;;;5087860;28;20467;-44
2022/02/04 00:46:38;;;;;;;20.93;20.03;;;17.30;84.10;;;;;;5087919;28;20558;-43
2022/02/04 00:49:10;;;;;;;21.27;20.37;;;17.20;84.20;;;;;;5080144;28;20839;-43
2022/02/04 00:51:44;;;;;;;21.77;20.77;;;17.20;84.30;;;;;;5067841;28;20542;-47
2022/02/04 00:54:21;;;;;;;20.70;19.90;;;17.20;84.30;;;;;;5067802;28;20574;-43
2022/02/04 00:57:05;;;;;;;20.83;19.93;;;17.20;84.60;;;;;;5067569;28;20443;-43
2022/02/04 01:13:29;;;;;;;20.57;19.77;;;17.10;85.10;;;;;;5054193;28;20579;-43
2022/02/04 01:26:55;;;;;;;20.93;20.00;;;17.00;85.00;;;;;;5073855;28;20415;-43
2022/02/04 01:29:24;;;;;;;20.50;19.70;;;17.00;85.10;;;;;;5055852;28;20838;-43
2022/02/04 01:31:50;;;;;;;20.53;19.73;;;17.00;85.20;;;;;;5053718;28;20461;-44
2022/02/04 01:34:18;;;;;;;21.70;20.80;;;17.00;85.00;;;;;;5053882;28;20453;-43
2022/02/04 01:36:45;;;;;;;20.60;19.70;;;17.00;85.30;;;;;;5053512;28;20448;-45
2022/02/04 01:39:11;;;;;;;20.20;19.40;;;17.00;85.30;;;;;;5069467;28;20443;-43
2022/02/04 01:41:38;;;;;;;20.73;19.87;;;17.00;85.40;;;;;;5073721;28;20462;-43
2022/02/04 01:44:22;;;;;;;20.53;19.63;;;17.00;85.20;;;;;;5073485;28;20463;-43
2022/02/04 01:46:49;;;;;;;20.93;20.03;;;17.00;85.60;;;;;;5073431;28;20435;-43
2022/02/04 01:49:16;;;;;;;20.23;19.43;;;17.00;85.70;;;;;;5057055;28;20480;-43
2022/02/04 01:51:43;;;;;;;21.00;20.10;;;16.90;85.50;;;;;;5053394;28;20455;-42
2022/02/04 01:54:09;;;;;;;20.93;20.03;;;16.90;85.60;;;;;;5073319;28;20443;-42
2022/02/04 01:56:36;;;;;;;20.63;19.73;;;16.90;86.30;;;;;;5073285;28;20669;-44
2022/02/04 01:59:03;;;;;;;21.20;20.30;;;16.90;85.90;;;;;;5058866;28;20464;-46
2022/02/04 02:01:32;;;;;;;21.10;20.20;;;16.90;85.30;;;;;;5053196;28;20444;-42
2022/02/04 02:04:00;;;;;;;21.10;20.20;;;16.90;85.70;;;;;;5053170;28;20484;-42
2022/02/04 02:06:44;;;;;;;20.90;20.00;;;16.90;85.60;;;;;;5053077;28;20456;-44
2022/02/04 02:09:12;;;;;;;21.00;20.10;;;16.90;85.90;;;;;;5066517;28;21059;-42
2022/02/04 02:11:39;;;;;;;20.30;19.40;;;16.90;85.90;;;;;;5071843;28;20447;-41
2022/02/04 02:14:10;;;;;;;20.60;19.70;;;16.80;86.30;;;;;;5072912;28;20470;-42
2022/02/04 02:33:27;;;;;;;20.37;19.57;;;16.70;87.00;;;;;;5032778;28;20617;-42
2022/02/04 02:36:17;;;;;;;20.43;19.63;;;16.70;87.20;;;;;;5050584;28;20811;-42
2022/02/04 02:44:26;;;;;;;20.37;19.50;;;16.70;87.50;;;;;;5063105;28;21002;-44
2022/02/04 02:47:11;;;;;;;20.10;19.30;;;16.60;87.90;;;;;;5052237;28;20452;-42
2022/02/04 02:50:03;;;;;;;20.60;19.80;;;16.60;88.10;;;;;;5052432;28;20920;-42
2022/02/04 02:52:44;;;;;;;20.80;19.90;;;16.60;88.30;;;;;;5052308;28;20476;-42
2022/02/04 02:55:24;;;;;;;20.50;19.67;;;16.60;88.40;;;;;;5068461;28;20518;-42
2022/02/04 02:58:08;;;;;;;20.70;19.80;;;16.60;88.40;;;;;;5072146;28;20505;-47
2022/02/04 03:00:48;;;;;;;20.13;19.33;;;16.60;88.40;;;;;;5072287;28;20471;-42
2022/02/04 03:03:18;;;;;;;20.67;19.77;;;16.60;88.30;;;;;;5071521;28;20479;-42
2022/02/04 03:05:44;;;;;;;20.07;19.27;;;16.60;88.60;;;;;;5051902;28;20454;-42
2022/02/04 03:08:11;;;;;;;20.93;20.00;;;16.60;88.60;;;;;;5051865;28;20444;-42
2022/02/04 03:10:40;;;;;;;20.40;19.50;;;16.60;88.80;;;;;;5052224;28;20451;-42
2022/02/04 03:13:07;;;;;;;20.50;19.60;;;16.60;88.90;;;;;;5051866;28;20468;-42
2022/02/04 03:15:35;;;;;;;20.03;19.23;;;16.60;88.50;;;;;;5070231;28;20756;-42
2022/02/04 03:18:05;;;;;;;20.60;19.80;;;16.60;88.70;;;;;;5071877;28;20447;-42
2022/02/04 03:20:40;;;;;;;20.33;19.53;;;16.60;88.30;;;;;;5071931;28;20443;-42
2022/02/04 03:23:07;;;;;;;20.80;19.70;;;16.50;88.50;;;;;;5071536;28;20489;-42
2022/02/04 03:25:38;;;;;;;20.23;19.33;;;16.50;88.70;;;;;;5052487;28;20535;-41
2022/02/04 03:28:10;;;;;;;20.10;19.30;;;16.50;88.90;;;;;;5051587;28;20472;-43
2022/02/04 03:30:39;;;;;;;20.40;19.50;;;16.50;89.10;;;;;;5051715;28;20468;-42
2022/02/04 03:33:08;;;;;;;20.37;19.47;;;16.50;89.10;;;;;;5051434;28;20468;-43
2022/02/04 03:35:35;;;;;;;20.10;19.30;;;16.50;89.20;;;;;;5069856;28;20459;-44
2022/02/04 03:38:02;;;;;;;20.90;20.00;;;16.50;88.50;;;;;;5071623;28;20948;-42
2022/02/04 03:40:29;;;;;;;21.50;20.60;;;16.50;88.60;;;;;;5071656;28;20442;-42
2022/02/04 03:42:56;;;;;;;21.30;20.30;;;16.50;88.90;;;;;;5071531;28;20459;-43
2022/02/04 03:45:24;;;;;;;21.70;20.90;;;16.50;88.90;;;;;;5054621;28;20448;-42
2022/02/04 03:47:52;;;;;;;21.60;20.70;;;16.40;88.60;;;;;;5051612;28;20456;-42
2022/02/04 03:50:18;;;;;;;21.00;20.20;;;16.50;88.90;;;;;;5051459;28;20484;-42
2022/02/04 03:52:45;;;;;;;21.40;20.50;;;16.40;88.90;;;;;;5051454;28;20461;-42
2022/02/04 03:55:13;;;;;;;20.60;19.80;;;16.40;88.60;;;;;;5066127;28;20454;-42
2022/02/04 03:57:40;;;;;;;20.93;20.13;;;16.40;89.30;;;;;;5071591;28;20956;-42
2022/02/04 04:00:09;;;;;;;21.40;20.50;;;16.40;89.50;;;;;;5071844;28;20626;-45
2022/02/04 04:02:38;;;;;;;21.50;20.50;;;16.40;89.10;;;;;;5071382;28;20479;-45
2022/02/04 04:05:05;;;;;;;21.33;20.43;;;16.40;89.10;;;;;;5057458;28;20451;-45
2022/02/04 04:07:31;;;;;;;20.60;19.80;;;16.40;89.00;;;;;;5051362;28;20813;-43
2022/02/04 04:10:05;;;;;;;21.77;20.87;;;16.50;89.20;;;;;;5051333;28;20480;-50
2022/02/04 04:12:31;;;;;;;20.90;20.00;;;16.40;89.00;;;;;;5051552;28;20467;-45
2022/02/04 04:15:05;;;;;;;20.57;19.67;;;16.40;89.40;;;;;;5063505;28;20455;-49
2022/02/04 04:17:38;;;;;;;20.30;19.40;;;16.30;89.60;;;;;;5070898;28;20451;-46
2022/02/04 04:20:08;;;;;;;20.63;19.73;;;16.40;89.80;;;;;;5071573;28;20440;-46
2022/02/04 04:22:35;;;;;;;20.20;19.30;;;16.40;89.40;;;;;;5071137;28;20991;-46
2022/02/04 04:25:03;;;;;;;20.10;19.30;;;16.40;89.60;;;;;;5058352;28;20939;-46
2022/02/04 04:27:29;;;;;;;20.10;19.30;;;16.40;89.40;;;;;;5050985;28;20487;-43
2022/02/04 04:29:56;;;;;;;20.70;19.80;;;16.40;89.20;;;;;;5051203;28;20820;-44
2022/02/04 04:32:23;;;;;;;19.90;19.10;;;16.40;89.10;;;;;;5051449;28;20464;-45
2022/02/04 04:34:50;;;;;;;20.83;19.93;;;16.40;89.40;;;;;;5062590;28;20451;-45
2022/02/04 04:37:18;;;;;;;20.10;19.30;;;16.40;89.40;;;;;;5074663;28;20450;-48
2022/02/04 04:39:55;;;;;;;20.30;19.50;;;16.40;88.60;;;;;;5074848;28;20441;-48
2022/02/04 04:42:31;;;;;;;20.77;19.87;;;16.40;89.10;;;;;;5074785;28;20475;-44
2022/02/04 04:45:43;;;;;;;20.27;19.47;;;16.30;89.20;;;;;;5062724;28;20453;-47
2022/02/04 05:27:08;;;;;;;20.60;19.70;;;16.20;91.40;;;;;;5053883;28;20840;-49
2022/02/04 05:29:30;;;;;;;21.13;20.07;;;16.20;91.40;;;;;;5067376;28;20559;-49
2022/02/04 05:31:57;;;;;;;21.47;20.47;;;16.10;91.50;;;;;;5061466;28;20444;-43
2022/02/04 05:34:24;;;;;;;20.40;19.50;;;16.10;91.60;;;;;;5053951;28;20451;-46
2022/02/04 05:37:00;;;;;;;20.40;19.50;;;16.10;91.90;;;;;;5053515;28;20945;-43
2022/02/04 05:39:32;;;;;;;20.73;19.73;;;16.10;91.70;;;;;;5053738;28;20805;-50
2022/02/04 05:42:03;;;;;;;20.77;19.80;;;16.20;91.40;;;;;;5065230;28;20529;-44
2022/02/04 05:44:30;;;;;;;20.80;19.90;;;16.20;90.90;;;;;;5073669;28;20869;-42
2022/02/04 05:47:01;;;;;;;20.57;19.67;;;16.10;90.80;;;;;;5073343;28;20450;-44
2022/02/04 05:49:31;;;;;;;20.70;19.80;;;16.20;91.10;;;;;;5073532;28;20483;-46
2022/02/04 05:52:05;;;;;;;20.63;19.73;;;16.70;91.60;;;;;;5061704;28;20452;-45
2022/02/04 05:54:46;;;;;;;20.50;19.60;;;17.10;90.00;;;;;;5053444;28;20517;-48
2022/02/04 05:57:19;;;;;;;20.90;20.00;;;17.40;88.70;;;;;;5053574;28;20447;-48
2022/02/04 06:00:11;;;;;;;21.10;20.10;;;17.70;86.60;;;;;;5053275;28;20527;-43
2022/02/04 06:02:49;;;;;;;21.73;20.63;;;17.90;85.20;;;;;;5069539;28;20506;-47
2022/02/04 06:05:25;;;;;;;21.80;20.60;;;18.30;83.80;;;;;;5073417;28;20439;-44
2022/02/04 06:08:17;;;;;;;25.10;23.90;;;18.70;82.00;;;;;;5073144;28;20543;-41
2022/02/04 06:11:07;;;;;;;23.67;22.47;;;19.00;80.00;;;;;;5072128;28;20889;-42
2022/02/04 06:13:52;;;;;;;23.80;22.10;;;19.10;79.80;;;;;;5053107;28;20460;-42
2022/02/04 06:24:31;;;;;;;26.10;24.20;;;19.60;88.40;;;;;;5073175;28;20458;-43
2022/02/04 06:26:58;;;;;;;25.00;22.63;;;19.60;91.60;;;;;;5072454;28;20443;-44
2022/02/04 06:29:26;;;;;;;24.80;23.07;;;19.70;92.80;;;;;;5072644;28;20487;-43
2022/02/04 06:31:53;;;;;;;23.10;21.80;;;19.70;90.80;;;;;;5072497;28;20447;-43
2022/02/04 06:34:20;;;;;;;24.57;22.63;;;19.70;88.90;;;;;;5072691;28;20439;-46
2022/02/04 06:36:46;;;;;;;23.80;22.13;;;19.80;86.80;;;;;;5072371;28;20444;-42
2022/02/04 06:39:13;;;;;;;23.53;22.03;;;19.90;84.30;;;;;;5072451;28;20447;-43
2022/02/04 06:41:40;;;;;;;22.83;21.23;;;19.90;82.20;;;;;;5072378;28;20443;-44
2022/02/04 06:44:07;;;;;;;23.70;22.10;;;19.90;81.00;;;;;;5072336;28;20459;-47
2022/02/04 06:46:35;;;;;;;23.70;22.00;;;20.00;80.30;;;;;;5072104;28;20454;-43
2022/02/04 06:49:01;;;;;;;24.30;22.57;;;20.00;77.80;;;;;;5072323;28;20447;-43
2022/02/04 06:51:28;;;;;;;22.70;21.30;;;19.90;77.80;;;;;;5072159;28;20463;-44
2022/02/04 06:53:55;;;;;;;24.63;23.33;;;19.90;76.30;;;;;;5072050;28;20463;-43
2022/02/04 06:56:22;;;;;;;30.07;28.37;;;19.90;75.90;;;;;;5071864;28;20448;-45
2022/02/04 06:58:48;;;;;;;30.30;28.90;;;19.90;75.10;;;;;;5071703;28;20455;-43
2022/02/04 07:01:15;;;;;;;28.93;27.20;;;19.90;74.20;;;;;;5072163;28;20722;-42
2022/02/04 07:03:44;;;;;;;32.53;30.43;;;19.90;73.70;;;;;;5072171;28;20850;-44
2022/02/04 07:06:15;;;;;;;23.70;22.60;;;19.90;73.30;;;;;;5071854;28;20455;-44
2022/02/04 07:08:47;;;;;;;24.00;22.70;;;19.90;72.00;;;;;;5072141;28;20927;-42
2022/02/04 07:11:38;;;;;;;31.10;29.57;;;19.90;71.80;;;;;;5071987;28;20536;-43
2022/02/04 07:14:15;;;;;;;26.63;25.10;;;19.90;71.10;;;;;;5071911;28;20467;-42
2022/02/04 07:16:56;;;;;;;25.87;24.73;;;19.90;71.10;;;;;;5071817;28;20501;-42
2022/02/04 07:22:09;;;;;;;29.50;28.03;;;19.80;69.90;;;;;;5072109;28;20521;-43
2022/02/04 07:24:36;;;;;;;30.17;28.83;;;19.80;69.90;;;;;;5071713;28;20448;-43
2022/02/04 07:27:03;;;;;;;29.03;27.63;;;19.80;69.00;;;;;;5071469;28;20443;-43
2022/02/04 07:29:30;;;;;;;26.40;25.10;;;19.70;69.00;;;;;;5071929;28;20482;-42
2022/02/04 07:31:59;;;;;;;29.60;28.30;;;19.70;68.70;;;;;;5071692;28;20458;-44
2022/02/04 07:34:40;;;;;;;28.40;27.10;;;19.70;68.50;;;;;;5071771;28;20535;-43
2022/02/04 07:42:36;;;;;;;29.83;28.33;;;19.70;67.70;;;;;;5071958;28;21046;-42
2022/02/04 07:45:02;;;;;;;30.77;29.33;;;19.60;67.50;;;;;;5071616;28;20784;-43
2022/02/04 07:47:29;;;;;;;31.03;29.73;;;19.60;66.90;;;;;;5071303;28;20542;-43
2022/02/04 07:49:57;;;;;;;29.00;27.80;;;19.60;67.20;;;;;;5071495;28;20486;-43
2022/02/04 07:52:24;;;;;;;29.10;27.70;;;19.60;66.80;;;;;;5071393;28;20459;-45
2022/02/04 07:54:51;;;;;;;30.10;28.50;;;19.50;66.50;;;;;;5071589;28;20446;-43
2022/02/04 07:57:18;;;;;;;28.40;27.00;;;19.50;66.70;;;;;;5071499;28;20792;-43
2022/02/04 07:59:46;;;;;;;30.63;29.07;;;19.50;66.40;;;;;;5071594;28;20439;-43
2022/02/04 08:02:13;;;;;;;31.30;29.70;;;19.50;66.30;;;;;;5071271;28;20912;-43
2022/02/04 08:04:42;;;;;;;31.60;30.10;;;19.50;66.30;;;;;;5071815;28;20518;-43
2022/02/04 08:07:14;;;;;;;27.40;26.10;;;19.40;66.20;;;;;;5071300;28;21010;-43
2022/02/04 08:09:51;;;;;;;29.20;27.80;;;19.40;66.00;;;;;;5072345;28;20475;-42
2022/02/04 08:12:32;;;;;;;29.43;28.23;;;19.40;65.60;;;;;;5075327;28;20471;-43
2022/02/04 08:15:09;;;;;;;26.17;24.93;;;19.40;65.60;;;;;;5075422;28;20447;-43
2022/02/04 08:23:38;;;;;;;26.50;25.30;;;19.30;65.60;;;;;;5075301;28;21055;-42
2022/02/04 08:26:35;;;;;;;25.17;24.07;;;19.30;65.40;;;;;;5074969;28;20471;-42
2022/02/04 08:29:15;;;;;;;26.50;25.30;;;19.50;65.50;;;;;;5075099;28;20448;-43
2022/02/04 08:32:16;;;;;;;25.07;24.03;;;19.60;65.00;;;;;;5075021;28;20509;-43
2022/02/04 08:35:09;;;;;;;28.67;27.37;;;19.60;64.30;;;;;;5074890;28;20454;-43
2022/02/04 08:49:13;;;;;;;28.70;27.40;;;19.80;62.40;;;;;;5075062;28;20457;-43
2022/02/04 08:54:25;;;;;;;31.10;29.80;;;19.80;61.90;;;;;;5071784;28;20431;-46
2022/02/04 08:57:00;;;;;;;29.10;27.80;;;19.80;61.50;;;;;;5074411;28;20439;-43
2022/02/04 08:59:36;;;;;;;31.70;30.20;;;19.80;61.40;;;;;;5074514;28;20869;-44
2022/02/04 09:02:08;;;;;;;28.70;27.50;;;19.90;61.10;;;;;;5074323;28;20501;-44
2022/02/04 09:04:40;;;;;;;26.90;25.70;;;19.80;61.00;;;;;;5074467;28;20452;-43
2022/02/04 09:07:10;;;;;;;30.60;29.27;;;19.80;60.70;;;;;;5074099;28;20440;-43
2022/02/04 09:20:57;;;;;;;28.77;27.53;;;19.70;60.00;;;;;;5039863;28;20837;-43
2022/02/04 09:23:25;;;;;;;25.77;24.67;;;19.80;60.00;;;;;;5074245;28;20464;-43
2022/02/04 09:25:52;;;;;;;27.73;26.63;;;19.80;60.00;;;;;;5073886;28;20448;-42
2022/02/04 09:28:20;;;;;;;25.70;24.50;;;19.80;59.90;;;;;;5074161;28;20447;-43
2022/02/04 09:30:47;;;;;;;27.40;26.20;;;19.70;59.70;;;;;;5073984;28;20479;-42
2022/02/04 09:33:14;;;;;;;30.00;28.70;;;19.70;59.70;;;;;;5073795;28;20467;-44
2022/02/04 09:35:42;;;;;;;28.33;27.13;;;19.70;59.70;;;;;;5073888;28;20436;-42
2022/02/04 09:38:09;;;;;;;28.10;26.90;;;19.70;59.60;;;;;;5073962;28;20444;-43
2022/02/04 09:40:36;;;;;;;25.83;24.73;;;19.70;59.60;;;;;;5073683;28;20436;-43
2022/02/04 09:43:05;;;;;;;29.27;27.97;;;19.70;59.80;;;;;;5073705;28;20468;-43
2022/02/04 09:45:36;;;;;;;30.00;28.80;;;19.60;59.50;;;;;;5073375;28;20479;-43
2022/02/04 09:48:05;;;;;;;31.60;30.30;;;19.70;59.50;;;;;;5073509;28;20559;-43
2022/02/04 09:50:34;;;;;;;33.40;32.07;;;19.60;59.40;;;;;;5073403;28;20903;-44
2022/02/04 10:07:33;;;;;;;30.90;29.60;;;19.60;59.90;;;;;;5011326;28;20589;-42
2022/02/04 10:16:25;;;;;;;29.40;28.13;;;19.70;59.10;;;;;;5010831;28;20429;-43
2022/02/04 10:19:12;;;;;;;28.00;26.80;;;19.80;59.00;;;;;;5070135;28;20443;-43
2022/02/04 10:21:40;;;;;;;27.60;26.50;;;19.90;58.90;;;;;;5072873;28;20863;-42
2022/02/04 10:24:10;;;;;;;29.13;27.93;;;19.90;58.70;;;;;;5072742;28;20459;-42
2022/02/04 10:26:37;;;;;;;28.90;27.70;;;19.90;58.70;;;;;;5072616;28;20933;-43
2022/02/04 10:29:04;;;;;;;29.07;27.87;;;19.90;58.60;;;;;;5072693;28;20448;-43
2022/02/04 10:31:31;;;;;;;28.83;27.63;;;19.90;58.50;;;;;;5072543;28;20483;-43
2022/02/04 10:34:01;;;;;;;24.80;23.80;;;19.90;58.40;;;;;;5072046;28;20464;-42
2022/02/04 10:36:50;;;;;;;27.70;26.60;;;19.90;58.40;;;;;;5072643;28;20538;-42
2022/02/04 10:39:31;;;;;;;26.93;25.83;;;19.90;58.30;;;;;;5072766;28;20447;-43
2022/02/04 10:42:10;;;;;;;29.80;28.60;;;19.90;58.20;;;;;;5072396;28;20621;-46
2022/02/04 10:44:49;;;;;;;27.93;26.80;;;19.90;58.20;;;;;;5072468;28;20447;-42
2022/02/04 10:47:32;;;;;;;28.50;27.30;;;19.90;58.10;;;;;;5072260;28;20447;-45
2022/02/04 10:50:07;;;;;;;28.40;27.27;;;19.80;58.00;;;;;;5072288;28;20451;-43
2022/02/04 10:52:57;;;;;;;25.93;24.83;;;19.80;58.20;;;;;;5072170;28;20463;-42
2022/02/04 11:01:10;;;;;;;27.10;26.00;;;19.70;58.10;;;;;;5069513;28;20501;-43
2022/02/04 11:03:41;;;;;;;26.03;24.93;;;19.70;58.10;;;;;;5071865;28;20533;-43
2022/02/04 11:06:18;;;;;;;26.10;25.00;;;19.70;58.20;;;;;;5071877;28;20805;-43
2022/02/04 11:51:50;;;;;;;26.13;25.10;;;19.90;56.70;;;;;;5071310;28;20516;-42
2022/02/04 11:54:39;;;;;;;28.20;27.10;;;19.90;56.50;;;;;;5071563;28;20443;-43
2022/02/04 11:57:17;;;;;;;27.80;26.70;;;19.90;57.30;;;;;;5071380;28;20439;-44
2022/02/04 11:59:47;;;;;;;29.30;28.20;;;19.90;56.50;;;;;;5071446;28;20451;-46
2022/02/04 12:02:32;;;;;;;29.43;28.23;;;19.90;56.40;;;;;;5113494;22;20832;-46
2022/02/04 12:05:31;;;;;;;29.17;27.97;;;19.90;56.60;;;;;;5030475;28;20789;-47
2022/02/04 12:08:34;;;;;;;27.83;26.73;;;19.90;56.40;;;;;;5031411;28;20445;-47
2022/02/04 12:11:19;;;;;;;28.47;27.37;;;19.90;56.40;;;;;;5031265;28;20485;-47
2022/02/04 12:14:10;;;;;;;24.40;23.50;;;19.90;56.10;;;;;;5031453;28;20469;-48
2022/02/04 12:17:06;;;;;;;27.43;26.33;;;19.90;56.00;;;;;;5031145;28;20455;-48
2022/02/04 12:19:38;;;;;;;27.40;26.40;;;19.80;56.10;;;;;;5031448;28;20854;-47
2022/02/04 12:22:07;;;;;;;25.07;24.07;;;19.80;56.10;;;;;;5031312;28;20449;-46
2022/02/04 12:24:37;;;;;;;26.50;25.40;;;19.80;56.00;;;;;;5031249;28;20441;-47
2022/02/04 12:27:30;;;;;;;27.30;26.20;;;19.80;56.20;;;;;;5031017;28;20507;-48
2022/02/04 12:29:58;;;;;;;31.37;30.17;;;19.80;55.90;;;;;;5031310;28;20445;-47
2022/02/04 12:32:28;;;;;;;31.10;29.90;;;19.80;55.90;;;;;;5030910;28;20516;-47
2022/02/04 12:34:55;;;;;;;29.20;28.00;;;19.80;56.00;;;;;;5031145;28;20450;-48
2022/02/04 12:37:22;;;;;;;28.70;27.60;;;19.70;56.00;;;;;;5031154;28;20873;-46
2022/02/04 12:39:49;;;;;;;28.83;27.63;;;19.80;56.10;;;;;;5031083;28;20473;-46
2022/02/04 12:42:19;;;;;;;27.30;26.30;;;19.70;55.70;;;;;;5031160;28;20442;-46
2022/02/04 12:44:47;;;;;;;28.30;27.13;;;19.70;55.60;;;;;;5031060;28;20456;-47
2022/02/04 12:47:16;;;;;;;26.60;25.50;;;19.70;55.90;;;;;;5031039;28;20445;-48
2022/02/04 12:49:49;;;;;;;27.30;26.20;;;19.70;55.60;;;;;;5031222;28;20445;-50
2022/02/04 12:52:21;;;;;;;25.40;24.40;;;19.70;55.90;;;;;;5030829;28;20832;-47
2022/02/04 12:54:50;;;;;;;25.70;24.70;;;19.60;55.70;;;;;;5030923;28;20540;-48
2022/02/04 12:57:33;;;;;;;24.80;23.80;;;19.60;55.90;;;;;;5034446;28;20453;-48
2022/02/04 13:00:05;;;;;;;26.97;25.97;;;19.60;55.70;;;;;;5034641;28;20455;-47
2022/02/04 13:08:16;;;;;;;31.27;30.07;;;19.50;55.70;;;;;;5034483;28;20437;-50
2022/02/04 13:10:44;;;;;;;30.23;29.03;;;19.50;55.90;;;;;;5034410;28;20449;-48
2022/02/04 13:13:14;;;;;;;30.30;29.10;;;19.50;55.90;;;;;;5034155;28;20527;-48
2022/02/04 13:15:42;;;;;;;33.13;31.83;;;19.40;55.80;;;;;;5034176;28;20453;-48
2022/02/04 13:18:11;;;;;;;27.13;26.10;;;19.50;56.20;;;;;;5034172;28;20442;-48
2022/02/04 13:20:41;;;;;;;30.60;29.40;;;19.50;56.30;;;;;;5034245;28;20449;-48
2022/02/04 13:23:11;;;;;;;31.50;30.30;;;19.60;56.30;;;;;;5034118;28;20470;-49
2022/02/04 13:25:43;;;;;;;30.50;29.30;;;19.70;56.00;;;;;;5034242;28;20452;-47
2022/02/04 13:28:13;;;;;;;28.83;27.73;;;19.80;55.80;;;;;;5034167;28;20445;-47
2022/02/04 13:30:43;;;;;;;30.17;28.97;;;19.90;55.30;;;;;;5034063;28;20450;-47
2022/02/04 13:33:21;;;;;;;30.50;29.30;;;20.00;55.10;;;;;;5033966;28;20487;-50
2022/02/04 13:35:56;;;;;;;26.27;25.27;;;20.20;54.90;;;;;;5033795;28;20445;-48
2022/02/04 13:38:30;;;;;;;30.30;29.10;;;20.20;54.30;;;;;;5034060;28;20456;-49
2022/02/04 13:41:08;;;;;;;31.23;30.03;;;20.20;54.50;;;;;;5033933;28;21003;-47
2022/02/04 13:43:42;;;;;;;31.07;29.87;;;20.10;54.40;;;;;;5033867;28;20861;-49
2022/02/04 13:46:18;;;;;;;30.50;29.30;;;20.20;54.30;;;;;;5033540;28;20473;-48
2022/02/04 13:49:01;;;;;;;30.57;29.47;;;20.30;54.30;;;;;;5033890;28;20524;-48
2022/02/04 13:51:49;;;;;;;29.37;28.17;;;20.20;54.00;;;;;;5033580;28;20484;-49
2022/02/04 13:54:29;;;;;;;29.13;27.93;;;20.30;54.10;;;;;;5033740;28;20477;-47
2022/02/04 13:57:16;;;;;;;29.50;28.30;;;20.30;53.60;;;;;;5033546;28;20514;-47
2022/02/04 13:59:51;;;;;;;30.43;29.23;;;20.30;53.50;;;;;;5033692;28;20477;-49
2022/02/04 14:02:26;;;;;;;28.40;27.30;;;20.20;53.60;;;;;;5033588;28;20441;-49
2022/02/04 14:04:56;;;;;;;31.03;29.83;;;20.10;53.80;;;;;;5033540;28;20444;-50
2022/02/04 14:07:36;;;;;;;30.70;29.50;;;20.10;54.00;;;;;;5033140;28;20452;-47
2022/02/04 14:10:21;;;;;;;28.90;27.70;;;20.00;54.10;;;;;;5033182;28;20449;-43
2022/02/04 14:12:59;;;;;;;25.87;24.87;;;20.00;55.60;;;;;;5029550;28;20477;-45
2022/02/04 14:15:28;;;;;;;24.90;23.90;;;19.90;56.70;;;;;;5032948;28;20973;-45
2022/02/04 14:17:56;;;;;;;28.60;27.50;;;19.90;57.30;;;;;;5033430;28;20441;-44
2022/02/04 14:20:23;;;;;;;29.70;28.50;;;19.90;57.80;;;;;;5033282;28;20935;-46
2022/02/04 14:22:51;;;;;;;28.90;27.80;;;19.90;58.00;;;;;;5032873;28;20461;-44
2022/02/04 14:25:19;;;;;;;28.10;27.00;;;19.90;58.20;;;;;;5032970;28;20446;-47
2022/02/04 14:27:50;;;;;;;28.10;26.90;;;19.90;58.50;;;;;;5032552;28;20437;-47
2022/02/04 14:30:22;;;;;;;26.97;25.87;;;19.90;58.60;;;;;;5033062;28;20570;-46
2022/02/04 14:32:55;;;;;;;28.10;27.00;;;19.80;58.80;;;;;;5032314;28;20986;-45
2022/02/04 14:35:30;;;;;;;26.70;25.70;;;19.80;59.00;;;;;;5032788;28;20500;-46
2022/02/04 14:54:34;;;;;;;27.00;26.00;;;19.50;60.30;;;;;;5019660;28;20858;-47
2022/02/04 15:00:14;;;;;;;25.60;24.60;;;19.60;61.10;;;;;;5027752;28;20435;-45
2022/02/04 15:02:45;;;;;;;26.80;25.73;;;19.70;61.30;;;;;;5012406;28;20979;-48
2022/02/04 15:05:16;;;;;;;26.30;25.30;;;19.80;61.50;;;;;;5012713;28;20525;-47
2022/02/04 15:07:44;;;;;;;27.10;26.00;;;19.90;61.10;;;;;;5012452;28;20452;-46
2022/02/04 15:10:25;;;;;;;25.80;24.80;;;19.90;60.10;;;;;;5013635;28;20545;-46
2022/02/04 15:12:52;;;;;;;24.60;23.70;;;19.90;60.00;;;;;;5032031;28;20487;-46
2022/02/04 15:15:18;;;;;;;23.00;22.10;;;19.90;60.50;;;;;;5032254;28;20440;-46
2022/02/04 15:17:45;;;;;;;26.10;25.10;;;19.90;59.70;;;;;;5032021;28;20441;-46
2022/02/04 15:20:12;;;;;;;27.03;25.97;;;19.90;59.80;;;;;;5031802;28;20474;-46
2022/02/04 15:22:39;;;;;;;24.97;24.07;;;20.00;60.20;;;;;;5032248;28;20460;-48
2022/02/04 15:25:17;;;;;;;23.30;22.40;;;20.20;60.60;;;;;;5032431;28;20449;-46
2022/02/04 15:27:55;;;;;;;28.87;27.13;;;20.40;60.70;;;;;;5032741;28;20445;-45
2022/02/04 15:30:26;;;;;;;30.97;28.77;;;20.50;59.50;;;;;;5032629;28;20845;-46
2022/02/04 15:32:55;;;;;;;30.23;28.23;;;20.80;59.60;;;;;;5032431;28;20493;-48
2022/02/04 15:35:22;;;;;;;30.10;27.67;;;21.00;58.70;;;;;;5031880;28;20454;-45
2022/02/04 15:37:49;;;;;;;33.10;30.50;;;21.20;58.00;;;;;;5031977;28;20519;-46
2022/02/04 15:40:16;;;;;;;32.53;30.13;;;21.30;57.50;;;;;;5031629;28;20541;-47
2022/02/04 15:42:49;;;;;;;32.73;29.90;;;21.50;57.20;;;;;;5031807;28;20552;-48
2022/02/04 15:45:51;;;;;;;37.60;34.07;;;21.50;56.80;;;;;;5031839;28;20994;-48
2022/02/04 15:48:19;;;;;;;40.97;37.57;;;21.60;56.40;;;;;;5032016;28;20936;-50
2022/02/04 15:51:04;;;;;;;44.23;40.33;;;21.70;56.10;;;;;;5031978;28;20499;-47
2022/02/04 15:53:36;;;;;;;44.90;40.50;;;21.70;55.90;;;;;;5031733;28;20481;-49
2022/02/04 15:56:28;;;;;;;43.90;39.90;;;21.70;55.90;;;;;;5031685;28;20459;-48
2022/02/04 15:59:11;;;;;;;41.47;38.23;;;21.70;55.70;;;;;;5032729;28;20544;-44
2022/02/04 16:01:58;;;;;;;38.30;35.10;;;21.70;55.40;;;;;;5033228;28;20477;-45
2022/02/04 16:04:27;;;;;;;37.67;34.60;;;21.70;55.20;;;;;;5032082;28;20862;-48
2022/02/04 16:06:54;;;;;;;38.00;35.10;;;21.90;55.00;;;;;;5031756;28;20461;-47
2022/02/04 16:09:22;;;;;;;35.50;33.20;;;22.00;54.40;;;;;;5032204;28;20447;-45
2022/02/04 16:12:01;;;;;;;31.43;29.03;;;22.00;54.30;;;;;;5031455;28;20838;-44
2022/02/04 16:14:32;;;;;;;29.70;27.90;;;21.90;54.60;;;;;;5031448;28;20612;-47
2022/02/04 16:17:09;;;;;;;27.53;25.80;;;21.90;54.70;;;;;;5031310;28;20449;-47
2022/02/04 16:19:41;;;;;;;26.90;25.07;;;22.00;55.00;;;;;;5031429;28;20457;-46
2022/02/04 16:22:29;;;;;;;28.73;26.70;;;22.20;54.80;;;;;;5031395;28;20894;-46
2022/02/04 16:30:24;;;;;;;27.23;25.20;;;22.30;54.10;;;;;;5032092;28;20421;-44
2022/02/04 16:32:52;;;;;;;23.93;22.63;;;22.30;53.70;;;;;;5035147;28;20986;-47
2022/02/04 16:35:21;;;;;;;25.83;24.13;;;22.30;53.70;;;;;;5034834;28;20452;-47
2022/02/04 16:38:00;;;;;;;24.73;23.13;;;22.20;53.30;;;;;;5035047;28;20460;-45
2022/02/04 16:40:27;;;;;;;24.80;23.33;;;22.10;53.40;;;;;;5035207;28;20472;-45
2022/02/04 16:42:54;;;;;;;24.57;23.07;;;22.00;53.70;;;;;;5034920;28;20499;-46
2022/02/04 16:45:21;;;;;;;24.40;22.80;;;22.00;53.70;;;;;;5034859;28;20477;-48
2022/02/04 16:47:51;;;;;;;24.47;23.00;;;21.90;53.80;;;;;;5033873;28;20453;-43
2022/02/04 16:50:21;;;;;;;25.30;23.57;;;21.90;54.20;;;;;;5034258;28;20529;-45
2022/02/04 16:52:48;;;;;;;25.10;23.57;;;21.80;54.00;;;;;;5034081;28;20484;-44
2022/02/04 16:55:16;;;;;;;24.03;22.63;;;21.90;54.50;;;;;;5034730;28;20452;-45
2022/02/04 16:57:42;;;;;;;24.57;22.70;;;22.10;53.80;;;;;;5034630;28;20459;-47
2022/02/04 17:00:20;;;;;;;24.83;23.43;;;22.30;53.40;;;;;;5034900;28;20449;-45
2022/02/04 17:02:48;;;;;;;24.07;22.67;;;22.30;53.00;;;;;;5034728;28;20472;-47
2022/02/04 17:05:14;;;;;;;23.50;22.10;;;22.20;53.00;;;;;;5035102;28;20445;-44
2022/02/04 17:07:51;;;;;;;24.00;22.73;;;22.20;53.00;;;;;;5034279;28;20939;-45